Louis Armstrong New Orleans International Airport
KMSY : now visible

Airfield :











YOU CAN JOIN US ON...

 
LOGIN :

Register | Disclaimer

   EN    FR    IT 

 









Legend :    VFR   Marginal VFR   IFR   Intensive IFR   Very Intensive IFR
Visi :
Ceiling :
>= 8 km
>= 3000ft
5 to 8 km
1000 to 3000 ft
1500m to 5 km
500 to 1000 ft
800 to 1500m
200 to 500 ft
< 800m
< 200 ft
Symbols :   Thunderstorms  Fog  Heavy snow  Heavy precipitations  Wind > 20 kt






- Airport Elevation : 4 ft
- IATA code : MSY


KMSY - Louis Armstrong New Orleans International

CURRENT METAR :
  • 021753Z 18005KT 10SM SCT032TCU SCT100 BKN250 31/24 A3001 RMK AO2 LTG DSNT E RAB38E49 SLP164 CB DSNT NE-E AND TCU SW-W P0000 60000 T03110244 10322 20261 58009

EXPIRED METARs :
  • 021653Z VRB03KT 10SM FEW034 SCT043 BKN150 32/24 A3001 RMK AO2 SLP167 CB DSNT NE T03170244
  • 021553Z 18006KT 10SM SCT022 31/24 A3003 RMK AO2 SLP173 T03110239
  • 021453Z VRB03KT 10SM SCT022 BKN060 BKN250 30/26 A3004 RMK AO2 SLP174 T03000256 51009

TAF KMSY
Valid from the 02 at 18:00 until the 04 at 00:00 UTC


021733Z 0218/0324 VRB03KT P6SM VCSH FEW035 SCT045 BKN150
TEMPO 0220/0222 2SM TSRA BR BKN020CB
FM022200 16005KT P6SM VCTS SCT025CB BKN100
FM030100 VRB04KT P6SM SCT020 BKN110
KZHU FIR / North America



MET'MAP, your aeronautical weather chart ! - Copyright ORBIFLY December 2007 - Disclaimer

ORBIFLY MET'MAP TEAM :

Programming & Development : Alexandra Zaïnal
Original concept : Baudouin d'Aumeries
Technical & hardware support : Manuel Goepfert
Assistance : Marc-Olivier Méhu




SOURCES & CREDITS :

   NOAA       Earth
Advisory